createdAt,value
2018-08-07T09:46:02.443Z,163.13
2018-08-07T09:47:02.580Z,174.38
2018-08-07T09:48:02.721Z,180.00
2018-08-07T09:49:02.876Z,174.38
2018-08-07T09:50:03.010Z,180.00
2018-08-07T09:51:03.153Z,174.38
2018-08-07T09:52:03.294Z,180.00
2018-08-07T09:53:03.568Z,180.00
2018-08-07T09:54:03.580Z,174.38
2018-08-07T09:55:03.729Z,168.75
2018-08-07T09:56:03.891Z,168.75
2018-08-07T09:57:03.995Z,163.13
2018-08-07T09:58:04.139Z,168.75
2018-08-07T09:59:04.282Z,174.38
2018-08-07T10:00:04.454Z,174.38
2018-08-07T10:01:04.578Z,168.75
2018-08-07T10:02:04.723Z,168.75
2018-08-07T10:03:04.879Z,163.13
2018-08-07T10:04:05.026Z,163.13
2018-08-07T10:05:05.241Z,180.00
2018-08-07T10:06:05.315Z,180.00
2018-08-07T10:07:05.461Z,180.00
2018-08-07T10:08:05.628Z,185.63
2018-08-07T10:09:05.766Z,180.00
2018-08-07T10:10:05.904Z,185.63
2018-08-07T10:11:06.041Z,180.00
2018-08-07T10:12:06.212Z,185.63
2018-08-07T10:13:06.344Z,185.63
2018-08-07T10:14:06.484Z,185.63
2018-08-07T10:15:06.631Z,185.63
2018-08-07T10:16:06.794Z,180.00
2018-08-07T10:17:06.940Z,174.38
2018-08-07T10:18:07.085Z,168.75
2018-08-07T10:19:07.228Z,168.75
2018-08-07T10:20:07.397Z,151.88
2018-08-07T10:21:07.533Z,168.75
2018-08-07T10:22:07.682Z,168.75
2018-08-07T10:23:07.847Z,163.13
2018-08-07T10:24:08.052Z,163.13
2018-08-07T10:25:08.173Z,163.13
2018-08-07T10:26:08.290Z,163.13
2018-08-07T10:27:08.434Z,180.00
2018-08-07T10:28:08.591Z,191.25
2018-08-07T10:29:08.737Z,191.25
2018-08-07T10:30:08.882Z,191.25
2018-08-07T10:31:09.029Z,196.88
2018-08-07T10:32:09.193Z,196.88
2018-08-07T10:33:09.348Z,196.88
2018-08-07T10:34:09.495Z,196.88
2018-08-07T10:35:09.841Z,196.88
2018-08-07T10:36:09.795Z,202.50
2018-08-07T10:37:09.939Z,202.50
2018-08-07T10:38:10.138Z,213.75
2018-08-07T10:39:10.285Z,202.50
2018-08-07T10:40:10.465Z,219.38
2018-08-07T10:41:10.656Z,208.13
2018-08-07T10:42:10.737Z,213.75
2018-08-07T10:43:10.927Z,213.75
2018-08-07T10:44:11.076Z,225.00
2018-08-07T10:45:11.208Z,225.00
2018-08-07T10:46:11.349Z,225.00
2018-08-07T10:47:11.544Z,230.63
2018-08-07T10:48:11.664Z,241.88
2018-08-07T10:49:11.802Z,236.25
2018-08-07T10:50:11.964Z,247.50
2018-08-07T10:51:12.104Z,253.13
2018-08-07T10:52:12.265Z,253.13
2018-08-07T10:53:12.413Z,258.75
2018-08-07T10:54:12.802Z,264.38
2018-08-07T10:55:12.728Z,264.38
2018-08-07T10:56:12.878Z,264.38
2018-08-07T10:57:13.021Z,258.75
2018-08-07T10:58:13.202Z,253.13
2018-08-07T10:59:13.315Z,253.13
2018-08-07T11:00:13.461Z,253.13
2018-08-07T11:01:13.607Z,253.13
2018-08-07T11:02:13.771Z,270.00
2018-08-07T11:03:13.911Z,264.38
2018-08-07T11:04:14.058Z,264.38
2018-08-07T11:05:14.204Z,264.38
2018-08-07T11:06:14.362Z,264.38
2018-08-07T11:07:14.517Z,275.63
2018-08-07T11:08:14.648Z,270.00
2018-08-07T11:09:14.794Z,264.38
2018-08-07T11:10:14.956Z,281.25
2018-08-07T11:11:15.097Z,270.00
2018-08-07T11:12:15.243Z,281.25
2018-08-07T11:13:15.393Z,298.13
2018-08-07T11:14:15.543Z,303.75
2018-08-07T11:15:15.687Z,303.75
2018-08-07T11:16:15.829Z,303.75
2018-08-07T11:17:16.103Z,309.38
2018-08-07T11:18:16.116Z,326.25
2018-08-07T11:19:16.264Z,337.50
2018-08-07T11:20:16.457Z,348.75
2018-08-07T11:21:16.576Z,354.38
2018-08-07T11:22:16.718Z,315.00
2018-08-07T11:23:16.871Z,309.38
2018-08-07T11:24:17.040Z,371.25
2018-08-07T11:25:17.191Z,360.00
2018-08-07T11:26:17.342Z,348.75
2018-08-07T11:27:17.491Z,360.00
2018-08-07T11:28:17.673Z,326.25
2018-08-07T11:29:17.800Z,382.50
2018-08-07T11:30:17.948Z,331.88
2018-08-07T11:31:18.096Z,320.63
2018-08-07T11:32:18.261Z,331.88
2018-08-07T11:33:18.396Z,298.13
2018-08-07T11:34:18.548Z,303.75
2018-08-07T11:35:18.693Z,292.50
2018-08-07T11:36:18.848Z,309.38
2018-08-07T11:37:18.989Z,292.50
2018-08-07T11:38:19.145Z,275.63
2018-08-07T11:39:19.293Z,286.88
2018-08-07T11:40:19.440Z,292.50
2018-08-07T11:41:19.654Z,303.75
2018-08-07T11:42:19.731Z,303.75
2018-08-07T11:43:19.878Z,298.13
2018-08-07T11:44:20.037Z,298.13
2018-08-07T11:45:20.183Z,303.75
2018-08-07T11:46:20.327Z,309.38
2018-08-07T11:47:20.474Z,376.88
2018-08-07T11:48:20.728Z,393.75
2018-08-07T11:49:20.788Z,320.63
2018-08-07T11:50:20.937Z,320.63
2018-08-07T11:51:21.083Z,343.13
2018-08-07T11:52:21.287Z,337.50
2018-08-07T11:53:21.398Z,337.50
2018-08-07T11:54:21.549Z,399.38
2018-08-07T11:55:21.695Z,405.00
2018-08-07T11:56:21.914Z,405.00
2018-08-07T11:57:22.005Z,399.38
2018-08-07T11:58:22.155Z,405.00
2018-08-07T11:59:22.306Z,388.13
2018-08-07T12:00:22.474Z,354.38
2018-08-07T12:01:22.613Z,315.00
2018-08-07T12:02:22.831Z,343.13
2018-08-07T12:03:22.917Z,433.13
2018-08-07T12:04:23.076Z,444.38
2018-08-07T12:05:23.217Z,438.75
2018-08-07T12:06:23.464Z,433.13
2018-08-07T12:07:23.487Z,433.13
2018-08-07T12:08:23.659Z,438.75
2018-08-07T12:09:23.799Z,433.13
2018-08-07T12:10:23.953Z,427.50
2018-08-07T12:11:24.104Z,427.50
2018-08-07T12:12:24.264Z,438.75
2018-08-07T12:13:24.408Z,433.13
2018-08-07T12:14:24.558Z,433.13
2018-08-07T12:15:24.710Z,421.88
2018-08-07T12:16:24.966Z,427.50
2018-08-07T12:17:25.008Z,416.25
2018-08-07T12:18:25.163Z,410.63
2018-08-07T12:19:25.309Z,405.00
2018-08-07T12:20:25.484Z,405.00
2018-08-07T12:21:25.626Z,399.38
2018-08-07T12:22:25.775Z,388.13
2018-08-07T12:23:25.923Z,405.00
2018-08-07T12:24:26.214Z,410.63
2018-08-07T12:25:26.244Z,416.25
2018-08-07T12:26:26.394Z,421.88
2018-08-07T12:27:26.545Z,433.13
2018-08-07T12:28:26.734Z,371.25
2018-08-07T12:29:26.877Z,410.63
2018-08-07T12:30:27.025Z,365.63
2018-08-07T12:31:27.176Z,360.00
2018-08-07T12:32:27.349Z,360.00
2018-08-07T12:33:27.498Z,365.63
2018-08-07T12:34:27.652Z,371.25
2018-08-07T12:35:27.789Z,360.00
2018-08-07T12:36:27.949Z,427.50
2018-08-07T12:37:28.094Z,354.38
2018-08-07T12:38:28.245Z,427.50
2018-08-07T12:39:28.394Z,360.00
2018-08-07T12:40:28.617Z,410.63
2018-08-07T12:41:28.697Z,427.50
2018-08-07T12:42:28.846Z,427.50
2018-08-07T12:43:28.994Z,393.75
2018-08-07T12:44:29.145Z,455.63
2018-08-07T12:45:29.288Z,455.63
2018-08-07T12:46:29.488Z,466.88
2018-08-07T12:47:29.589Z,466.88
2018-08-07T12:48:29.755Z,466.88
2018-08-07T12:49:29.898Z,444.38
2018-08-07T12:50:30.048Z,388.13
2018-08-07T12:51:30.199Z,393.75
2018-08-07T12:52:30.361Z,365.63
2018-08-07T12:53:30.498Z,360.00
2018-08-07T12:54:30.656Z,354.38
2018-08-07T12:55:30.802Z,365.63
2018-08-07T12:56:30.976Z,360.00
2018-08-07T12:57:31.115Z,354.38
2018-08-07T12:58:31.259Z,416.25
2018-08-07T12:59:31.407Z,427.50
2018-08-07T13:00:31.554Z,427.50
2018-08-07T13:01:31.716Z,427.50
2018-08-07T13:02:31.862Z,433.13
2018-08-07T13:03:32.009Z,427.50
2018-08-07T13:04:32.163Z,416.25
2018-08-07T13:05:32.313Z,410.63
2018-08-07T13:06:32.460Z,405.00
2018-08-07T13:07:32.613Z,416.25
2018-08-07T13:08:32.766Z,405.00
2018-08-07T13:09:32.931Z,410.63
2018-08-07T13:10:33.065Z,416.25
2018-08-07T13:11:33.214Z,427.50
2018-08-07T13:12:33.369Z,421.88
2018-08-07T13:13:33.517Z,405.00
2018-08-07T13:14:33.662Z,405.00
2018-08-07T13:15:33.815Z,405.00
2018-08-07T13:16:33.963Z,405.00
2018-08-07T13:17:34.133Z,393.75
2018-08-07T13:18:34.272Z,393.75
2018-08-07T13:19:34.420Z,393.75
2018-08-07T13:20:34.574Z,382.50
2018-08-07T13:21:34.728Z,382.50
2018-08-07T13:22:34.873Z,388.13
2018-08-07T13:23:35.026Z,382.50
2018-08-07T13:24:35.176Z,365.63
2018-08-07T13:25:35.336Z,388.13
2018-08-07T13:26:35.516Z,393.75
2018-08-07T13:27:35.634Z,393.75
2018-08-07T13:28:35.832Z,393.75
2018-08-07T13:29:35.981Z,388.13
2018-08-07T13:30:36.147Z,393.75
2018-08-07T13:31:36.355Z,315.00
2018-08-07T13:32:36.440Z,315.00
2018-08-07T13:33:36.607Z,315.00
2018-08-07T13:34:36.754Z,348.75
2018-08-07T13:35:36.906Z,382.50
2018-08-07T13:36:37.057Z,371.25
2018-08-07T13:37:37.205Z,360.00
2018-08-07T13:38:37.353Z,292.50
2018-08-07T13:39:37.502Z,286.88
2018-08-07T13:40:37.659Z,354.38
2018-08-07T13:41:37.803Z,343.13
2018-08-07T13:42:37.955Z,331.88
2018-08-07T13:43:38.139Z,337.50
2018-08-07T13:44:38.288Z,348.75
2018-08-07T13:45:38.440Z,348.75
2018-08-07T13:46:38.597Z,365.63
2018-08-07T13:47:38.743Z,376.88
2018-08-07T13:48:38.897Z,388.13
2018-08-07T13:49:39.049Z,399.38
2018-08-07T13:50:39.193Z,399.38
2018-08-07T13:51:39.340Z,393.75
2018-08-07T13:52:39.495Z,388.13
2018-08-07T13:53:39.657Z,382.50
2018-08-07T13:54:39.804Z,382.50
2018-08-07T13:55:39.948Z,326.25
2018-08-07T13:56:40.098Z,382.50
2018-08-07T13:57:40.253Z,376.88
2018-08-07T13:58:40.401Z,376.88
2018-08-07T13:59:40.548Z,382.50
2018-08-07T14:00:40.705Z,388.13
2018-08-07T14:01:40.856Z,399.38
2018-08-07T14:02:41.006Z,388.13
2018-08-07T14:03:41.160Z,376.88
2018-08-07T14:04:41.303Z,360.00
2018-08-07T14:05:41.444Z,354.38
2018-08-07T14:06:41.597Z,348.75
2018-08-07T14:07:41.753Z,348.75
2018-08-07T14:08:41.911Z,320.63
2018-08-07T14:09:42.067Z,309.38
2018-08-07T14:10:42.217Z,298.13
2018-08-07T14:11:42.375Z,275.63
2018-08-07T14:12:42.528Z,286.88
2018-08-07T14:13:42.681Z,326.25
2018-08-07T14:14:42.832Z,298.13
2018-08-07T14:15:43.007Z,275.63
2018-08-07T14:16:43.136Z,247.50
2018-08-07T14:17:43.297Z,281.25
2018-08-07T14:18:43.434Z,303.75
2018-08-07T14:19:43.586Z,298.13
2018-08-07T14:20:43.739Z,286.88
2018-08-07T14:21:43.880Z,315.00
2018-08-07T14:22:44.047Z,315.00
2018-08-07T14:23:44.197Z,331.88
2018-08-07T14:24:44.350Z,343.13
2018-08-07T14:25:44.496Z,348.75
2018-08-07T14:26:44.659Z,365.63
2018-08-07T14:27:44.805Z,360.00
2018-08-07T14:28:44.961Z,365.63
2018-08-07T14:29:45.106Z,382.50
2018-08-07T14:30:45.267Z,393.75
2018-08-07T14:31:45.418Z,393.75
2018-08-07T14:32:45.573Z,405.00
2018-08-07T14:33:45.725Z,405.00
2018-08-07T14:34:45.868Z,399.38
2018-08-07T14:35:46.020Z,360.00
2018-08-07T14:36:46.240Z,393.75
2018-08-07T14:37:46.324Z,382.50
2018-08-07T14:38:46.474Z,354.38
2018-08-07T14:39:46.629Z,309.38
2018-08-07T14:40:46.773Z,286.88
2018-08-07T14:41:46.944Z,281.25
2018-08-07T14:42:47.098Z,270.00
2018-08-07T14:43:47.250Z,258.75
2018-08-07T14:44:47.397Z,264.38
2018-08-07T14:45:47.546Z,270.00
2018-08-07T14:46:47.700Z,281.25
2018-08-07T14:47:47.866Z,298.13
2018-08-07T14:48:48.014Z,286.88
2018-08-07T14:49:48.162Z,292.50
2018-08-07T14:50:48.311Z,309.38
2018-08-07T14:51:48.462Z,326.25
2018-08-07T14:52:48.613Z,343.13
2018-08-07T14:53:48.760Z,331.88
2018-08-07T14:54:48.911Z,303.75
2018-08-07T14:55:49.149Z,292.50
2018-08-07T14:56:49.258Z,281.25
2018-08-07T14:57:49.443Z,331.88
2018-08-07T14:58:49.501Z,303.75
2018-08-07T14:59:49.619Z,309.38
2018-08-07T15:00:49.764Z,315.00
2018-08-07T15:01:49.932Z,320.63
2018-08-07T15:02:50.071Z,320.63
2018-08-07T15:03:50.232Z,326.25
2018-08-07T15:04:50.389Z,331.88
2018-08-07T15:05:50.536Z,343.13
2018-08-07T15:06:50.679Z,354.38
2018-08-07T15:07:50.832Z,343.13
2018-08-07T15:08:50.995Z,371.25
2018-08-07T15:09:51.191Z,371.25
2018-08-07T15:10:51.284Z,382.50
2018-08-07T15:11:51.437Z,382.50
2018-08-07T15:12:51.587Z,393.75
2018-08-07T15:13:51.731Z,382.50
2018-08-07T15:14:51.878Z,376.88
2018-08-07T15:15:52.028Z,371.25
2018-08-07T15:16:52.177Z,371.25
2018-08-07T15:17:52.329Z,376.88
2018-08-07T15:18:52.481Z,376.88
2018-08-07T15:19:52.691Z,376.88
2018-08-07T15:20:52.828Z,376.88
2018-08-07T15:21:52.945Z,365.63
2018-08-07T15:22:53.088Z,360.00
2018-08-07T15:23:53.250Z,360.00
2018-08-07T15:24:53.485Z,354.38
2018-08-07T15:25:53.547Z,360.00
2018-08-07T15:26:53.695Z,354.38
2018-08-07T15:27:53.842Z,354.38
2018-08-07T15:28:53.993Z,348.75
2018-08-07T15:29:54.139Z,354.38
2018-08-07T15:30:54.292Z,348.75
2018-08-07T15:31:54.448Z,348.75
2018-08-07T15:32:54.609Z,343.13
2018-08-07T15:33:54.822Z,337.50
2018-08-07T15:34:54.922Z,337.50
2018-08-07T15:35:55.069Z,337.50
2018-08-07T15:36:55.222Z,331.88
2018-08-07T15:37:55.403Z,326.25
2018-08-07T15:38:55.584Z,326.25
2018-08-07T15:39:55.747Z,326.25
2018-08-07T15:40:55.897Z,320.63
2018-08-07T15:41:56.059Z,303.75
2018-08-07T15:42:56.204Z,281.25
2018-08-07T15:43:56.360Z,270.00
2018-08-07T15:44:56.510Z,247.50
2018-08-07T15:45:56.655Z,264.38
2018-08-07T15:46:56.812Z,270.00
2018-08-07T15:47:56.973Z,264.38
2018-08-07T15:48:57.136Z,253.13
2018-08-07T15:49:57.284Z,241.88
2018-08-07T15:50:57.440Z,247.50
2018-08-07T15:51:57.585Z,241.88
2018-08-07T15:52:57.774Z,196.88
2018-08-07T15:53:57.884Z,168.75
2018-08-07T15:54:58.036Z,151.88
2018-08-07T15:55:58.179Z,135.00
2018-08-07T15:56:58.329Z,118.13
2018-08-07T15:57:58.478Z,106.88
2018-08-07T15:58:58.622Z,101.25
2018-08-07T15:59:58.775Z,95.63
2018-08-07T16:00:58.918Z,95.63
2018-08-07T16:01:59.071Z,95.63
2018-08-07T16:02:59.220Z,95.63
2018-08-07T16:03:59.370Z,90.00
2018-08-07T16:04:59.521Z,90.00
2018-08-07T16:05:59.664Z,84.38
2018-08-07T16:06:59.811Z,84.38
2018-08-07T16:07:59.961Z,84.38
2018-08-07T16:09:00.106Z,78.75
2018-08-07T16:10:00.255Z,78.75
2018-08-07T16:11:00.403Z,78.75
2018-08-07T16:12:00.554Z,78.75
2018-08-07T16:13:00.698Z,73.13
2018-08-07T16:14:00.845Z,73.13
2018-08-07T16:15:01.004Z,67.50
2018-08-07T16:16:01.154Z,67.50
2018-08-07T16:17:01.315Z,67.50
2018-08-07T16:18:01.461Z,67.50
2018-08-07T16:19:01.607Z,61.88
2018-08-07T16:20:01.762Z,61.88
2018-08-07T16:21:01.906Z,61.88
2018-08-07T16:22:02.062Z,56.25
2018-08-07T16:23:02.235Z,56.25
2018-08-07T16:24:02.368Z,50.63
2018-08-07T16:25:02.526Z,50.63
2018-08-07T16:26:02.669Z,50.63
2018-08-07T16:27:02.823Z,45.00
2018-08-07T16:28:02.971Z,45.00
2018-08-07T16:29:03.103Z,45.00
2018-08-07T16:30:03.263Z,39.38
2018-08-07T16:31:03.425Z,39.38
2018-08-07T16:32:03.575Z,39.38
2018-08-07T16:33:03.718Z,39.38
2018-08-07T16:34:03.898Z,39.38
2018-08-07T16:35:04.038Z,39.38
2018-08-07T16:36:04.184Z,39.38
2018-08-07T16:37:04.327Z,39.38
2018-08-07T16:38:04.493Z,39.38
2018-08-07T16:39:04.634Z,39.38
2018-08-07T16:40:04.781Z,39.38
2018-08-07T16:41:04.926Z,39.38
2018-08-07T16:42:05.123Z,39.38
2018-08-07T16:43:05.265Z,39.38
2018-08-07T16:44:05.419Z,39.38
2018-08-07T16:45:05.580Z,39.38
2018-08-07T16:46:05.757Z,39.38
2018-08-07T16:47:05.967Z,39.38
2018-08-07T16:48:05.990Z,39.38
2018-08-07T16:49:06.143Z,39.38
2018-08-07T16:50:06.278Z,39.38
2018-08-07T16:51:06.429Z,39.38
2018-08-07T16:52:06.585Z,33.75
2018-08-07T16:53:06.731Z,33.75
2018-08-07T16:54:06.874Z,33.75
2018-08-07T16:55:07.022Z,33.75
2018-08-07T16:56:07.165Z,33.75
2018-08-07T16:57:07.414Z,33.75
2018-08-07T16:58:07.497Z,33.75
2018-08-07T16:59:07.689Z,39.38
2018-08-07T17:00:07.836Z,39.38
2018-08-07T17:01:07.991Z,39.38
2018-08-07T17:02:08.147Z,39.38
2018-08-07T17:03:08.293Z,39.38
2018-08-07T17:04:08.445Z,39.38
2018-08-07T17:05:08.598Z,39.38
2018-08-07T17:06:08.757Z,39.38
2018-08-07T17:07:08.909Z,39.38
2018-08-07T17:08:09.060Z,39.38
2018-08-07T17:09:09.209Z,39.38
2018-08-07T17:10:09.354Z,39.38
2018-08-07T17:11:09.505Z,39.38
2018-08-07T17:12:09.653Z,39.38
2018-08-07T17:13:09.821Z,33.75
2018-08-07T17:14:09.975Z,33.75
2018-08-07T17:15:10.144Z,33.75
2018-08-07T17:16:10.289Z,33.75
2018-08-07T17:17:10.454Z,28.13
2018-08-07T17:18:10.603Z,33.75
2018-08-07T17:19:10.755Z,28.13
2018-08-07T17:20:10.904Z,33.75
2018-08-07T17:21:11.077Z,33.75
2018-08-07T17:22:11.230Z,33.75
2018-08-07T17:23:11.372Z,33.75
2018-08-07T17:24:11.528Z,33.75
2018-08-07T17:25:11.678Z,33.75
2018-08-07T17:26:11.827Z,33.75
2018-08-07T17:27:11.985Z,33.75
2018-08-07T17:28:12.129Z,33.75
2018-08-07T17:29:12.275Z,33.75
2018-08-07T17:30:12.419Z,33.75
2018-08-07T17:31:12.599Z,28.13
2018-08-07T17:32:12.725Z,28.13
2018-08-07T17:33:12.877Z,28.13
2018-08-07T17:34:13.062Z,28.13
2018-08-07T17:35:13.420Z,33.75
2018-08-07T17:36:13.341Z,33.75
2018-08-07T17:37:13.470Z,33.75
2018-08-07T17:38:13.620Z,33.75
2018-08-07T17:39:13.766Z,33.75
2018-08-07T17:40:13.910Z,33.75
2018-08-07T17:41:14.057Z,33.75
2018-08-07T17:42:14.210Z,28.13
2018-08-07T17:43:14.360Z,28.13
2018-08-07T17:44:14.507Z,28.13
2018-08-07T17:45:14.651Z,28.13
2018-08-07T17:46:14.797Z,28.13
2018-08-07T17:47:14.947Z,28.13
2018-08-07T17:48:15.094Z,22.50
2018-08-07T17:49:15.245Z,22.50
2018-08-07T17:50:15.398Z,22.50
2018-08-07T17:51:15.548Z,22.50
2018-08-07T17:52:15.693Z,22.50
2018-08-07T17:53:15.840Z,22.50
2018-08-07T17:54:15.985Z,22.50
2018-08-07T17:55:16.135Z,22.50
2018-08-07T17:56:16.284Z,22.50
2018-08-07T17:57:16.457Z,22.50
2018-08-07T17:58:16.576Z,22.50
2018-08-07T17:59:16.741Z,16.88
2018-08-07T18:00:17.124Z,16.88
2018-08-07T18:01:17.051Z,16.88
2018-08-07T18:02:17.203Z,16.88
2018-08-07T18:03:17.353Z,16.88
2018-08-07T18:04:17.601Z,16.88
2018-08-07T18:05:17.669Z,11.25
2018-08-07T18:06:18.659Z,11.25
2018-08-07T18:07:18.036Z,11.25
2018-08-07T18:08:18.178Z,11.25
2018-08-07T18:09:18.330Z,11.25
2018-08-07T18:10:18.478Z,11.25
2018-08-07T18:11:18.627Z,11.25
2018-08-07T18:12:18.772Z,11.25
2018-08-07T18:13:18.934Z,5.63
2018-08-07T18:14:19.120Z,5.63
2018-08-07T18:15:19.266Z,5.63
2018-08-07T18:16:19.410Z,5.63
2018-08-07T18:17:19.556Z,5.63
2018-08-07T18:18:19.722Z,5.63
2018-08-07T18:19:19.873Z,5.63
2018-08-07T18:20:20.021Z,5.63
2018-08-07T18:21:20.168Z,5.63
2018-08-07T18:22:20.437Z,5.63
2018-08-07T18:23:20.476Z,5.63
2018-08-07T18:24:20.617Z,5.63
2018-08-07T18:25:20.782Z,5.63
2018-08-07T18:26:20.946Z,5.63
2018-08-07T18:27:21.131Z,5.63
2018-08-07T18:28:21.258Z,5.63
2018-08-07T18:29:21.402Z,5.63
2018-08-07T18:30:21.543Z,5.63
2018-08-07T18:31:21.707Z,5.63
2018-08-07T18:32:21.846Z,5.63
2018-08-07T18:33:22.010Z,5.63
2018-08-07T18:34:22.163Z,5.63
2018-08-07T18:35:22.357Z,5.63
2018-08-07T18:36:22.608Z,0.00
2018-08-07T18:37:22.633Z,0.00
2018-08-07T18:38:22.790Z,0.00
2018-08-07T18:39:22.933Z,0.00
2018-08-07T18:40:23.084Z,0.00
2018-08-07T18:41:23.230Z,0.00
2018-08-07T18:42:23.381Z,0.00
2018-08-07T18:43:23.521Z,0.00
2018-08-07T18:44:23.715Z,0.00
2018-08-07T18:45:23.856Z,0.00
2018-08-07T18:46:24.002Z,0.00
2018-08-07T18:47:24.187Z,0.00
2018-08-07T18:48:24.314Z,0.00
2018-08-07T18:49:24.462Z,0.00
2018-08-07T18:50:24.622Z,0.00
2018-08-07T18:51:24.775Z,0.00
2018-08-07T18:52:24.903Z,0.00
2018-08-07T18:53:25.060Z,0.00
2018-08-07T18:54:25.205Z,0.00
2018-08-07T18:55:25.396Z,0.00
2018-08-07T18:56:25.550Z,0.00
2018-08-07T18:57:25.795Z,0.00
2018-08-07T18:58:25.864Z,0.00
2018-08-07T18:59:26.009Z,0.00
2018-08-07T19:00:26.152Z,0.00
2018-08-07T19:01:26.303Z,0.00
2018-08-07T19:02:26.452Z,0.00
2018-08-07T19:03:26.590Z,0.00
2018-08-07T19:04:26.737Z,0.00
2018-08-07T19:05:26.883Z,0.00
2018-08-07T19:06:27.034Z,0.00
2018-08-07T19:07:27.174Z,0.00
2018-08-07T19:08:27.317Z,0.00
2018-08-07T19:09:27.468Z,0.00
2018-08-07T19:10:27.652Z,0.00
2018-08-07T19:11:27.800Z,0.00
2018-08-07T19:12:27.937Z,0.00
2018-08-07T19:13:28.114Z,0.00
2018-08-07T19:14:28.264Z,0.00
2018-08-07T19:15:28.409Z,0.00
2018-08-07T19:16:28.568Z,0.00
2018-08-07T19:17:28.709Z,0.00
2018-08-07T19:18:28.920Z,0.00
2018-08-07T19:19:28.998Z,0.00
2018-08-07T19:20:29.137Z,0.00
2018-08-07T19:21:29.288Z,0.00
2018-08-07T19:22:29.426Z,0.00
2018-08-07T19:23:29.567Z,0.00
2018-08-07T19:24:29.709Z,0.00
2018-08-07T19:25:29.861Z,0.00
2018-08-07T19:26:30.005Z,0.00
2018-08-07T19:27:30.153Z,0.00
2018-08-07T19:28:30.300Z,0.00
2018-08-07T19:29:30.439Z,0.00
2018-08-07T19:30:30.584Z,0.00
2018-08-07T19:31:30.727Z,0.00
2018-08-07T19:32:30.888Z,0.00
2018-08-07T19:33:31.034Z,0.00
2018-08-07T19:34:31.169Z,0.00
2018-08-07T19:35:31.323Z,0.00
2018-08-07T19:36:31.469Z,0.00
2018-08-07T19:37:31.629Z,0.00
2018-08-07T19:38:31.769Z,0.00
2018-08-07T19:39:31.922Z,0.00
2018-08-07T19:40:32.062Z,0.00
2018-08-07T19:41:32.206Z,0.00
2018-08-07T19:42:32.359Z,0.00
2018-08-07T19:43:32.496Z,0.00
2018-08-07T19:44:32.641Z,0.00
2018-08-07T19:45:32.791Z,0.00
2018-08-07T19:46:32.930Z,0.00
2018-08-07T19:47:33.069Z,0.00
2018-08-07T19:48:33.238Z,0.00
2018-08-07T19:49:33.384Z,0.00
2018-08-07T19:50:33.529Z,0.00
2018-08-07T19:51:33.665Z,0.00
2018-08-07T19:52:33.824Z,0.00
2018-08-07T19:53:34.008Z,0.00
2018-08-07T19:54:34.123Z,0.00
2018-08-07T19:55:34.299Z,0.00
2018-08-07T19:56:34.414Z,0.00
2018-08-07T19:57:34.567Z,0.00
2018-08-07T19:58:34.729Z,0.00
2018-08-07T19:59:34.874Z,0.00
2018-08-07T20:00:35.031Z,0.00
2018-08-07T20:01:35.176Z,0.00
2018-08-07T20:02:35.327Z,0.00
2018-08-07T20:03:35.471Z,0.00
2018-08-07T20:04:35.612Z,0.00
2018-08-07T20:05:35.764Z,0.00
2018-08-07T20:06:36.052Z,0.00
2018-08-07T20:07:36.088Z,0.00
2018-08-07T20:08:36.227Z,0.00
2018-08-07T20:09:36.368Z,0.00
2018-08-07T20:10:36.592Z,0.00
2018-08-07T20:11:36.674Z,0.00
2018-08-07T20:12:36.820Z,0.00
2018-08-07T20:13:36.965Z,0.00
2018-08-07T20:14:37.119Z,0.00
2018-08-07T20:15:37.263Z,0.00
2018-08-07T20:16:37.407Z,0.00
2018-08-07T20:17:37.617Z,0.00
2018-08-07T20:18:37.722Z,0.00
2018-08-07T20:19:37.859Z,0.00
2018-08-07T20:20:38.011Z,0.00
2018-08-07T20:21:38.185Z,0.00
2018-08-07T20:22:38.329Z,0.00
2018-08-07T20:23:38.471Z,0.00
2018-08-07T20:24:38.616Z,0.00
2018-08-07T20:25:38.789Z,0.00
2018-08-07T20:26:38.936Z,0.00
2018-08-07T20:27:39.080Z,0.00
2018-08-07T20:28:39.223Z,0.00
2018-08-07T20:29:39.387Z,0.00
2018-08-07T20:30:39.537Z,0.00
2018-08-07T20:31:39.667Z,0.00
2018-08-07T20:32:39.817Z,0.00
2018-08-07T20:33:39.987Z,0.00
2018-08-07T20:34:40.133Z,0.00
2018-08-07T20:35:40.274Z,0.00
2018-08-07T20:36:40.475Z,0.00
2018-08-07T20:37:40.554Z,0.00
2018-08-07T20:38:40.757Z,0.00
2018-08-07T20:41:12.795Z,0.00
2018-08-07T20:42:12.962Z,0.00
2018-08-07T20:43:13.136Z,0.00
2018-08-07T20:44:13.199Z,0.00
2018-08-07T20:45:13.352Z,0.00
2018-08-07T20:46:13.503Z,0.00
2018-08-07T20:47:13.701Z,0.00
2018-08-07T20:48:13.840Z,0.00
2018-08-07T20:49:13.986Z,0.00
2018-08-07T20:50:14.125Z,0.00
2018-08-07T20:51:14.266Z,0.00
2018-08-07T20:52:14.420Z,0.00
2018-08-07T20:53:14.567Z,0.00
2018-08-07T20:54:14.706Z,0.00
2018-08-07T20:55:14.847Z,0.00
2018-08-07T20:56:14.994Z,0.00
2018-08-07T20:57:15.138Z,0.00
2018-08-07T20:58:15.282Z,0.00
2018-08-07T20:59:15.425Z,0.00
2018-08-07T21:00:15.571Z,0.00
2018-08-07T21:01:15.736Z,0.00
2018-08-07T21:02:15.872Z,0.00
2018-08-07T21:03:16.023Z,0.00
2018-08-07T21:04:16.168Z,0.00
2018-08-07T21:05:16.427Z,0.00
2018-08-07T21:06:16.476Z,0.00
2018-08-07T21:07:16.626Z,0.00
2018-08-07T21:08:16.768Z,0.00
2018-08-07T21:09:16.911Z,0.00
2018-08-07T21:10:17.057Z,0.00
2018-08-07T21:11:17.221Z,0.00
2018-08-07T21:12:17.363Z,0.00
2018-08-07T21:13:17.518Z,0.00
2018-08-07T21:14:17.688Z,0.00
2018-08-07T21:15:17.828Z,0.00
2018-08-07T21:16:18.019Z,0.00
2018-08-07T21:17:18.138Z,0.00
2018-08-07T21:18:18.279Z,0.00
2018-08-07T21:19:18.421Z,0.00
2018-08-07T21:20:18.607Z,0.00
2018-08-07T21:21:18.737Z,0.00
2018-08-07T21:22:18.885Z,0.00
2018-08-07T21:23:19.047Z,0.00
2018-08-07T21:24:19.192Z,0.00
2018-08-07T21:25:19.378Z,0.00
2018-08-07T21:26:19.514Z,0.00
2018-08-07T21:27:19.668Z,0.00
2018-08-07T21:28:19.808Z,0.00
2018-08-07T21:29:19.952Z,0.00
2018-08-07T21:30:20.106Z,0.00
2018-08-07T21:31:20.263Z,0.00
2018-08-07T21:32:20.407Z,0.00
2018-08-07T21:33:20.553Z,0.00
2018-08-07T21:34:20.706Z,0.00
2018-08-07T21:35:20.857Z,0.00
2018-08-07T21:36:21.007Z,0.00
2018-08-07T21:37:21.157Z,0.00
2018-08-07T21:38:21.300Z,0.00
2018-08-07T21:39:21.443Z,0.00
2018-08-07T21:40:21.591Z,0.00
2018-08-07T21:41:21.787Z,0.00
2018-08-07T21:42:21.874Z,0.00
2018-08-07T21:43:22.021Z,0.00
2018-08-07T21:44:22.171Z,0.00
2018-08-07T21:45:22.315Z,0.00
2018-08-07T21:46:22.457Z,0.00
2018-08-07T21:47:22.602Z,0.00
2018-08-07T21:48:22.754Z,0.00
2018-08-07T21:49:22.900Z,0.00
2018-08-07T21:50:23.035Z,0.00
2018-08-07T21:51:23.187Z,0.00
2018-08-07T21:52:23.332Z,0.00
2018-08-07T21:53:23.474Z,0.00
2018-08-07T21:54:23.622Z,0.00
2018-08-07T21:55:23.772Z,0.00
2018-08-07T21:56:23.938Z,0.00
2018-08-07T21:57:24.073Z,0.00
2018-08-07T21:58:24.227Z,0.00
2018-08-07T21:59:24.371Z,0.00
2018-08-07T22:00:24.551Z,0.00
2018-08-07T22:01:24.704Z,0.00
2018-08-07T22:02:24.852Z,0.00
2018-08-07T22:03:25.008Z,0.00
2018-08-07T22:04:25.164Z,0.00
2018-08-07T22:05:25.290Z,0.00
2018-08-07T22:06:25.436Z,0.00
2018-08-07T22:07:25.616Z,0.00
2018-08-07T22:08:25.762Z,0.00
2018-08-07T22:09:25.933Z,0.00
2018-08-07T22:10:26.082Z,0.00
2018-08-07T22:11:26.226Z,0.00
2018-08-07T22:12:26.423Z,0.00
2018-08-07T22:13:26.542Z,0.00
2018-08-07T22:14:26.683Z,0.00
2018-08-07T22:15:26.858Z,0.00
2018-08-07T22:16:26.998Z,0.00
2018-08-07T22:17:27.161Z,0.00
2018-08-07T22:18:27.308Z,0.00
2018-08-07T22:19:27.474Z,0.00
2018-08-07T22:20:27.618Z,0.00
2018-08-07T22:21:27.773Z,0.00
2018-08-07T22:22:27.916Z,0.00
2018-08-07T22:23:28.071Z,0.00
2018-08-07T22:24:28.210Z,0.00
2018-08-07T22:25:28.354Z,0.00
2018-08-07T22:26:28.498Z,0.00
2018-08-07T22:27:28.640Z,0.00
2018-08-07T22:28:28.786Z,0.00
2018-08-07T22:29:28.938Z,0.00
2018-08-07T22:30:29.080Z,0.00
2018-08-07T22:31:29.296Z,0.00
2018-08-07T22:32:29.404Z,0.00
2018-08-07T22:33:29.551Z,0.00
2018-08-07T22:34:29.706Z,0.00
2018-08-07T22:35:29.850Z,0.00
2018-08-07T22:36:29.996Z,0.00
2018-08-07T22:37:30.143Z,0.00
2018-08-07T22:38:30.281Z,0.00